Time;durP1;ratioP1;P1;durP2;ratioP2;P2;SDS_P1;SDS_P2;PMS_P1;PMS_P2;Temp;Humidity;BMP_temperature;BMP_pressure;BME280_temperature;BME280_humidity;BME280_pressure;Samples;Min_cycle;Max_cycle;Signal;HPM_P1;HPM_P2
2021/09/19 00:01:08;;;;;;;9.07;6.87;;;9.80;99.90;;;;;;5046054;28;20266;-81
2021/09/19 00:03:34;;;;;;;10.07;7.53;;;9.70;99.90;;;;;;5047504;28;20176;-81
2021/09/19 00:05:59;;;;;;;11.77;7.90;;;9.70;99.90;;;;;;5047763;28;20258;-82
2021/09/19 00:08:27;;;;;;;9.80;7.57;;;9.70;99.90;;;;;;5049389;28;20183;-81
2021/09/19 00:10:53;;;;;;;8.67;7.30;;;9.70;99.90;;;;;;5049383;28;20175;-81
2021/09/19 00:13:19;;;;;;;8.33;6.70;;;9.60;99.90;;;;;;5048540;28;20197;-81
2021/09/19 00:15:45;;;;;;;9.50;6.93;;;9.60;99.90;;;;;;5050055;28;20198;-82
2021/09/19 00:18:11;;;;;;;8.97;6.97;;;9.60;99.90;;;;;;5054956;28;20191;-81
2021/09/19 00:20:39;;;;;;;8.83;6.73;;;9.60;99.90;;;;;;5049881;28;20213;-81
2021/09/19 00:23:08;;;;;;;9.60;7.50;;;9.60;99.90;;;;;;5046210;28;20195;-81
2021/09/19 00:25:34;;;;;;;9.43;6.57;;;9.60;99.90;;;;;;5046033;28;20201;-81
2021/09/19 00:27:59;;;;;;;6.70;5.97;;;9.50;99.90;;;;;;5044796;28;20247;-81
2021/09/19 00:30:25;;;;;;;6.87;6.17;;;9.60;99.90;;;;;;5046537;28;20181;-81
2021/09/19 00:32:51;;;;;;;6.67;5.97;;;9.50;99.90;;;;;;5046753;28;20181;-81
2021/09/19 00:35:17;;;;;;;8.83;5.73;;;9.50;99.90;;;;;;5044405;28;20527;-81
2021/09/19 00:37:43;;;;;;;6.80;5.50;;;9.50;99.90;;;;;;5045839;28;20254;-81
2021/09/19 00:40:10;;;;;;;7.50;5.97;;;9.50;99.90;;;;;;5044144;28;20198;-81
2021/09/19 00:42:36;;;;;;;9.10;5.63;;;9.50;99.90;;;;;;5047354;28;20176;-82
2021/09/19 00:45:08;;;;;;;6.63;5.93;;;9.50;99.90;;;;;;5047333;28;20171;-82
2021/09/19 00:47:34;;;;;;;6.70;5.50;;;9.50;99.90;;;;;;5047826;28;20186;-81
2021/09/19 00:50:00;;;;;;;7.87;6.03;;;9.50;99.90;;;;;;5048703;28;20203;-81
2021/09/19 00:52:27;;;;;;;7.47;5.53;;;9.50;99.90;;;;;;5044760;28;20324;-81
2021/09/19 00:54:58;;;;;;;6.27;5.67;;;9.40;99.90;;;;;;5044505;28;20171;-81
2021/09/19 00:57:26;;;;;;;6.70;5.70;;;9.40;99.90;;;;;;5044290;28;20197;-81
2021/09/19 00:59:52;;;;;;;8.00;5.30;;;9.30;99.90;;;;;;5045698;28;20269;-81
2021/09/19 01:02:19;;;;;;;7.13;5.87;;;9.20;99.90;;;;;;5044919;28;20178;-81
2021/09/19 01:04:45;;;;;;;6.57;5.80;;;9.20;99.90;;;;;;5044891;28;20182;-81
2021/09/19 01:07:12;;;;;;;7.27;5.27;;;9.20;99.90;;;;;;5044890;28;20241;-81
2021/09/19 01:09:40;;;;;;;7.27;5.77;;;9.20;99.90;;;;;;5045517;28;20180;-81
2021/09/19 01:12:07;;;;;;;5.90;5.03;;;9.20;99.90;;;;;;5046298;28;20168;-82
2021/09/19 01:14:36;;;;;;;5.87;5.20;;;9.20;99.90;;;;;;5045789;28;20182;-81
2021/09/19 01:17:02;;;;;;;6.43;5.80;;;9.20;99.90;;;;;;5045239;28;20218;-81
2021/09/19 01:19:27;;;;;;;7.70;5.57;;;9.20;99.90;;;;;;5056884;28;20223;-81
2021/09/19 01:21:53;;;;;;;6.03;5.43;;;9.20;99.90;;;;;;5056753;28;20211;-81
2021/09/19 01:24:21;;;;;;;6.47;5.73;;;9.10;99.90;;;;;;5048769;28;20701;-82
2021/09/19 01:26:47;;;;;;;8.73;6.30;;;9.10;99.90;;;;;;5045481;28;20366;-81
2021/09/19 01:29:13;;;;;;;7.90;5.80;;;9.10;99.90;;;;;;5045420;28;20676;-81
2021/09/19 01:31:39;;;;;;;7.57;5.97;;;9.00;99.90;;;;;;5044183;28;20198;-81
2021/09/19 01:34:05;;;;;;;5.93;5.30;;;9.00;99.90;;;;;;5043588;28;20182;-81
2021/09/19 01:36:34;;;;;;;6.03;5.43;;;9.00;99.90;;;;;;5043522;28;20199;-81
2021/09/19 01:39:00;;;;;;;6.53;5.40;;;9.00;99.90;;;;;;5048400;28;20218;-81
2021/09/19 01:41:25;;;;;;;6.40;5.60;;;9.00;99.90;;;;;;5051291;28;20579;-81
2021/09/19 01:43:54;;;;;;;5.93;5.33;;;8.90;99.90;;;;;;5051643;28;20211;-82
2021/09/19 01:46:20;;;;;;;6.10;5.10;;;8.80;99.90;;;;;;5051965;28;20198;-82
2021/09/19 01:48:46;;;;;;;6.27;5.27;;;8.80;99.90;;;;;;5051814;28;20224;-81
2021/09/19 01:51:12;;;;;;;6.47;5.43;;;8.80;99.90;;;;;;5051485;28;20217;-81
2021/09/19 01:53:38;;;;;;;6.40;5.73;;;8.80;99.90;;;;;;5052121;28;20182;-80
2021/09/19 01:56:05;;;;;;;7.70;5.83;;;8.70;99.90;;;;;;5056070;28;20198;-82
2021/09/19 01:58:31;;;;;;;7.40;6.17;;;8.70;99.90;;;;;;5050874;28;20178;-81
2021/09/19 02:01:01;;;;;;;7.03;5.73;;;8.70;99.90;;;;;;5049292;28;20211;-81
2021/09/19 02:03:27;;;;;;;6.50;5.80;;;8.70;99.90;;;;;;5049132;28;20258;-81
2021/09/19 02:05:54;;;;;;;6.87;5.43;;;8.60;99.90;;;;;;5050993;28;20201;-82
2021/09/19 02:08:20;;;;;;;7.97;6.20;;;8.60;99.90;;;;;;5051427;28;20190;-81
2021/09/19 02:10:45;;;;;;;6.90;5.90;;;8.50;99.90;;;;;;5049509;28;20206;-82
2021/09/19 02:13:11;;;;;;;7.17;5.77;;;8.50;99.90;;;;;;5051355;28;20166;-82
2021/09/19 02:15:36;;;;;;;7.60;6.80;;;8.50;99.90;;;;;;5049281;28;20200;-81
2021/09/19 02:18:02;;;;;;;6.10;5.43;;;8.50;99.90;;;;;;5050104;28;20194;-82
2021/09/19 02:20:28;;;;;;;7.63;6.23;;;8.60;99.90;;;;;;5052113;28;20183;-81
2021/09/19 02:22:53;;;;;;;6.90;5.67;;;8.60;99.90;;;;;;5051137;28;20628;-82
2021/09/19 02:25:19;;;;;;;5.97;5.30;;;8.60;99.90;;;;;;5050995;28;20175;-81
2021/09/19 02:27:45;;;;;;;7.37;5.57;;;8.60;99.90;;;;;;5050475;28;20639;-81
2021/09/19 02:30:14;;;;;;;8.67;6.27;;;8.60;99.90;;;;;;5050892;28;20199;-82
2021/09/19 02:32:40;;;;;;;7.97;6.43;;;8.60;99.90;;;;;;5049131;28;20174;-81
2021/09/19 02:35:08;;;;;;;6.50;5.57;;;8.60;99.90;;;;;;5051251;28;20170;-81
2021/09/19 02:37:39;;;;;;;8.23;6.20;;;8.50;99.90;;;;;;5050892;28;20197;-82
2021/09/19 02:40:07;;;;;;;6.63;5.93;;;8.50;99.90;;;;;;5050040;28;20205;-82
2021/09/19 02:42:33;;;;;;;5.90;5.03;;;8.50;99.90;;;;;;5048890;28;20214;-81
2021/09/19 02:44:59;;;;;;;7.07;6.10;;;8.40;99.90;;;;;;5049920;28;20918;-82
2021/09/19 02:47:24;;;;;;;8.20;6.73;;;8.50;99.90;;;;;;5049948;28;20266;-81
2021/09/19 02:49:50;;;;;;;6.10;5.50;;;8.50;99.90;;;;;;5050129;28;20180;-82
2021/09/19 02:52:16;;;;;;;9.23;6.27;;;8.40;99.90;;;;;;5048318;28;20170;-82
2021/09/19 02:54:41;;;;;;;6.70;5.73;;;8.40;99.90;;;;;;5047016;28;20170;-82
2021/09/19 02:57:07;;;;;;;8.70;6.00;;;8.40;99.90;;;;;;5048233;28;20191;-82
2021/09/19 02:59:33;;;;;;;8.07;6.30;;;8.30;99.90;;;;;;5050364;28;20511;-82
2021/09/19 03:01:58;;;;;;;9.53;5.43;;;8.20;99.90;;;;;;5047791;28;20520;-82
2021/09/19 03:04:24;;;;;;;6.93;6.23;;;8.20;99.90;;;;;;5048088;28;20175;-82
2021/09/19 03:06:50;;;;;;;8.37;6.63;;;8.20;99.90;;;;;;5047419;28;20235;-82
2021/09/19 03:09:15;;;;;;;7.77;6.43;;;8.20;99.90;;;;;;5048861;28;20645;-81
2021/09/19 03:11:41;;;;;;;6.50;5.80;;;8.20;99.90;;;;;;5058502;28;20186;-81
2021/09/19 03:14:07;;;;;;;6.10;5.50;;;8.20;99.90;;;;;;5059886;28;20177;-81
2021/09/19 03:16:33;;;;;;;6.77;5.70;;;8.20;99.90;;;;;;5051908;28;20204;-81
2021/09/19 03:18:58;;;;;;;9.77;5.60;;;8.20;99.90;;;;;;5048244;28;20206;-81
2021/09/19 03:21:24;;;;;;;7.07;5.50;;;8.20;99.90;;;;;;5047829;28;20179;-82
2021/09/19 03:23:50;;;;;;;6.63;5.47;;;8.20;99.90;;;;;;5044906;28;20190;-81
2021/09/19 03:26:15;;;;;;;7.53;5.37;;;8.20;99.90;;;;;;5045603;28;20210;-81
2021/09/19 03:28:41;;;;;;;6.60;5.90;;;8.20;99.90;;;;;;5047425;28;20193;-81
2021/09/19 03:31:07;;;;;;;6.20;5.60;;;8.20;99.90;;;;;;5047373;28;20202;-82
2021/09/19 03:33:32;;;;;;;8.47;5.30;;;8.20;99.90;;;;;;5046552;28;20661;-82
2021/09/19 03:35:58;;;;;;;6.70;5.40;;;8.20;99.90;;;;;;5045764;28;20249;-81
2021/09/19 03:38:24;;;;;;;7.83;5.23;;;8.20;99.90;;;;;;5046495;28;20220;-81
2021/09/19 03:40:49;;;;;;;8.57;6.13;;;8.20;99.90;;;;;;5045788;28;20644;-81
2021/09/19 03:43:15;;;;;;;7.83;5.40;;;8.10;99.90;;;;;;5046405;28;20186;-81
2021/09/19 03:45:41;;;;;;;8.27;6.20;;;8.10;99.90;;;;;;5045713;28;20183;-82
2021/09/19 03:48:08;;;;;;;8.07;5.63;;;8.10;99.90;;;;;;5046740;28;20183;-81
2021/09/19 03:50:35;;;;;;;7.43;5.20;;;8.00;99.90;;;;;;5046174;28;20202;-82
2021/09/19 03:53:01;;;;;;;8.30;6.07;;;8.00;99.90;;;;;;5045623;28;20183;-81
2021/09/19 03:55:27;;;;;;;7.93;5.87;;;8.00;99.90;;;;;;5046071;28;20410;-82
2021/09/19 03:57:53;;;;;;;7.57;5.27;;;8.00;99.90;;;;;;5046683;28;20179;-81
2021/09/19 04:00:19;;;;;;;9.13;6.63;;;7.90;99.90;;;;;;5046697;28;20632;-81
2021/09/19 04:02:44;;;;;;;7.50;5.67;;;7.90;99.90;;;;;;5045658;28;20183;-82
2021/09/19 04:05:11;;;;;;;8.40;6.67;;;7.90;99.90;;;;;;5045750;28;20190;-81
2021/09/19 04:07:38;;;;;;;7.60;5.80;;;7.90;99.90;;;;;;5049829;28;20203;-81
2021/09/19 04:10:05;;;;;;;6.17;5.57;;;7.90;99.90;;;;;;5050741;28;20216;-81
2021/09/19 04:12:32;;;;;;;6.37;5.50;;;7.90;99.90;;;;;;5046032;28;20573;-82
2021/09/19 04:14:58;;;;;;;6.53;5.73;;;7.80;99.90;;;;;;5045613;28;20174;-82
2021/09/19 04:17:24;;;;;;;6.17;5.27;;;7.70;99.90;;;;;;5046210;28;20244;-82
2021/09/19 04:19:49;;;;;;;7.73;6.03;;;7.70;99.90;;;;;;5045806;28;20240;-82
2021/09/19 04:22:15;;;;;;;6.73;5.40;;;7.60;99.90;;;;;;5045610;28;20172;-82
2021/09/19 04:24:41;;;;;;;6.03;5.33;;;7.60;99.90;;;;;;5044092;28;20182;-82
2021/09/19 04:27:06;;;;;;;8.23;6.20;;;7.60;99.90;;;;;;5045274;28;20214;-82
2021/09/19 04:29:34;;;;;;;6.73;5.73;;;7.60;99.90;;;;;;5045412;28;20245;-82
2021/09/19 04:32:00;;;;;;;7.00;5.73;;;7.60;99.90;;;;;;5045398;28;20285;-81
2021/09/19 04:34:26;;;;;;;6.30;5.50;;;7.60;99.90;;;;;;5045866;28;20189;-81
2021/09/19 04:36:52;;;;;;;10.57;6.47;;;7.60;99.90;;;;;;5044732;28;20419;-81
2021/09/19 04:39:17;;;;;;;7.00;5.73;;;7.50;99.90;;;;;;5047985;28;20193;-81
2021/09/19 04:41:43;;;;;;;8.30;5.60;;;7.60;99.90;;;;;;5045364;28;20185;-82
2021/09/19 04:44:09;;;;;;;6.17;5.30;;;7.60;99.90;;;;;;5045483;28;20198;-81
2021/09/19 04:46:34;;;;;;;7.30;5.40;;;7.70;99.90;;;;;;5043767;28;20686;-81
2021/09/19 04:49:00;;;;;;;5.67;5.07;;;7.70;99.90;;;;;;5044384;28;20174;-81
2021/09/19 04:51:26;;;;;;;6.97;5.60;;;7.70;99.90;;;;;;5044684;28;20237;-82
2021/09/19 04:53:51;;;;;;;6.77;5.33;;;7.70;99.90;;;;;;5046080;28;20177;-81
2021/09/19 04:56:17;;;;;;;6.10;5.30;;;7.70;99.90;;;;;;5044356;28;20194;-82
2021/09/19 04:58:43;;;;;;;6.17;5.30;;;7.60;99.90;;;;;;5046072;28;20181;-82
2021/09/19 05:01:08;;;;;;;5.80;5.20;;;7.60;99.90;;;;;;5045182;28;20190;-82
2021/09/19 05:03:34;;;;;;;10.53;5.40;;;7.60;99.90;;;;;;5046841;28;20365;-81
2021/09/19 05:06:00;;;;;;;6.87;5.63;;;7.60;99.90;;;;;;5047445;28;20198;-81
2021/09/19 05:08:25;;;;;;;6.13;5.03;;;7.50;99.90;;;;;;5048080;28;20178;-81
2021/09/19 05:10:52;;;;;;;6.70;5.60;;;7.50;99.90;;;;;;5051552;28;20213;-81
2021/09/19 05:13:18;;;;;;;7.20;5.60;;;7.50;99.90;;;;;;5055096;28;20185;-81
2021/09/19 05:15:43;;;;;;;7.23;5.73;;;7.50;99.90;;;;;;5053890;28;20456;-81
2021/09/19 05:18:09;;;;;;;5.80;5.20;;;7.50;99.90;;;;;;5048564;28;20624;-81
2021/09/19 05:20:35;;;;;;;5.80;4.70;;;7.50;99.90;;;;;;5044795;28;20216;-82
2021/09/19 05:23:00;;;;;;;6.00;4.97;;;7.60;99.90;;;;;;5044854;28;20174;-82
2021/09/19 05:25:26;;;;;;;5.37;4.60;;;7.60;99.90;;;;;;5043109;28;20185;-81
2021/09/19 05:27:52;;;;;;;6.27;5.40;;;7.60;99.90;;;;;;5045175;28;20182;-81
2021/09/19 05:30:18;;;;;;;6.97;5.43;;;7.70;99.90;;;;;;5043342;28;20207;-82
2021/09/19 05:32:44;;;;;;;6.63;5.07;;;7.60;99.90;;;;;;5043878;28;20170;-82
2021/09/19 05:35:10;;;;;;;6.57;5.63;;;7.60;99.90;;;;;;5043782;28;20174;-82
2021/09/19 05:37:36;;;;;;;7.73;5.20;;;7.60;99.90;;;;;;5044076;28;20200;-81
2021/09/19 05:40:04;;;;;;;6.87;5.77;;;7.50;99.90;;;;;;5045576;28;20480;-82
2021/09/19 05:42:30;;;;;;;9.33;5.83;;;7.50;99.90;;;;;;5044735;28;20185;-82
2021/09/19 05:44:55;;;;;;;5.60;4.97;;;7.60;99.90;;;;;;5044281;28;20453;-82
2021/09/19 05:47:21;;;;;;;7.10;5.53;;;7.60;99.90;;;;;;5044617;28;20198;-82
2021/09/19 05:49:46;;;;;;;5.77;5.10;;;7.60;99.90;;;;;;5045178;28;20186;-82
2021/09/19 05:52:12;;;;;;;9.43;5.20;;;7.70;99.90;;;;;;5046520;28;20186;-81
2021/09/19 05:54:38;;;;;;;5.87;5.27;;;7.70;99.90;;;;;;5046240;28;20197;-82
2021/09/19 05:57:03;;;;;;;13.63;5.10;;;7.70;99.90;;;;;;5046180;28;20198;-82
2021/09/19 05:59:29;;;;;;;5.87;5.10;;;7.80;99.90;;;;;;5045911;28;20174;-81
2021/09/19 06:01:55;;;;;;;5.63;4.93;;;7.80;99.90;;;;;;5052557;28;20640;-81
2021/09/19 06:04:20;;;;;;;8.00;5.17;;;7.80;99.90;;;;;;5052782;28;20190;-81
2021/09/19 06:06:46;;;;;;;6.53;5.27;;;7.90;99.90;;;;;;5052061;28;20226;-81
2021/09/19 06:09:12;;;;;;;6.17;5.57;;;8.00;99.90;;;;;;5052061;28;20721;-81
2021/09/19 06:11:39;;;;;;;6.10;5.50;;;8.10;99.90;;;;;;5044334;28;20202;-81
2021/09/19 06:14:05;;;;;;;6.23;5.20;;;8.20;99.90;;;;;;5040327;28;20204;-81
2021/09/19 06:16:31;;;;;;;6.83;5.43;;;8.20;99.90;;;;;;5034072;28;20609;-81
2021/09/19 06:18:56;;;;;;;12.93;6.27;;;8.30;99.90;;;;;;5034464;28;20249;-81
2021/09/19 06:21:22;;;;;;;7.97;5.47;;;8.40;99.90;;;;;;5036841;28;20186;-82
2021/09/19 06:23:47;;;;;;;7.23;6.03;;;8.50;99.90;;;;;;5046279;28;20202;-81
2021/09/19 06:26:13;;;;;;;8.13;6.33;;;8.60;99.90;;;;;;5052538;28;20206;-82
2021/09/19 06:28:39;;;;;;;9.47;6.80;;;8.60;99.90;;;;;;5046287;28;20190;-82
2021/09/19 06:31:04;;;;;;;18.97;8.37;;;8.70;99.90;;;;;;5047839;28;20641;-81
2021/09/19 06:33:30;;;;;;;31.43;8.43;;;8.80;99.90;;;;;;5046104;28;20203;-82
2021/09/19 06:35:56;;;;;;;11.80;7.37;;;8.90;99.90;;;;;;5046195;28;20199;-82
2021/09/19 06:38:22;;;;;;;14.37;7.70;;;8.90;99.90;;;;;;5047314;28;20166;-82
2021/09/19 06:40:47;;;;;;;24.10;8.03;;;8.90;99.90;;;;;;5045456;28;20175;-81
2021/09/19 06:43:13;;;;;;;12.20;7.97;;;8.90;99.90;;;;;;5047122;28;20213;-82
2021/09/19 06:45:39;;;;;;;38.27;8.67;;;9.00;99.90;;;;;;5047422;28;20170;-82
2021/09/19 06:48:04;;;;;;;20.00;8.03;;;9.10;99.90;;;;;;5047100;28;20182;-81
2021/09/19 06:50:30;;;;;;;13.47;8.10;;;9.10;99.90;;;;;;5046369;28;20203;-82
2021/09/19 06:52:56;;;;;;;16.63;8.17;;;9.10;99.90;;;;;;5045811;28;20221;-81
2021/09/19 06:55:22;;;;;;;14.33;8.20;;;9.20;99.90;;;;;;5045711;28;20274;-82
2021/09/19 06:57:54;;;;;;;20.30;7.43;;;9.40;99.90;;;;;;5045529;28;20334;-82
2021/09/19 07:00:20;;;;;;;19.93;7.43;;;9.50;99.90;;;;;;5045037;28;20171;-82
2021/09/19 07:02:46;;;;;;;29.33;7.40;;;9.60;99.90;;;;;;5045151;28;20186;-82
2021/09/19 07:05:11;;;;;;;34.60;9.23;;;9.70;99.90;;;;;;5045037;28;20194;-82
2021/09/19 07:07:37;;;;;;;13.83;7.90;;;9.60;99.90;;;;;;5046793;28;20203;-81
2021/09/19 07:10:03;;;;;;;20.13;8.17;;;9.60;99.90;;;;;;5045992;28;20178;-82
2021/09/19 07:12:29;;;;;;;18.23;7.93;;;9.60;99.90;;;;;;5046438;28;20174;-82
2021/09/19 07:14:55;;;;;;;12.80;7.87;;;9.60;99.90;;;;;;5046569;28;20166;-82
2021/09/19 07:17:20;;;;;;;49.10;8.30;;;9.60;99.90;;;;;;5045424;28;20213;-82
2021/09/19 07:19:46;;;;;;;11.83;8.37;;;9.60;99.90;;;;;;5047280;28;20179;-82
2021/09/19 07:22:12;;;;;;;41.00;7.67;;;9.50;99.90;;;;;;5047103;28;20189;-82
2021/09/19 07:24:38;;;;;;;13.97;7.57;;;9.60;99.90;;;;;;5045417;28;20204;-81
2021/09/19 07:27:04;;;;;;;36.40;7.10;;;9.70;99.90;;;;;;5044765;28;20277;-81
2021/09/19 07:29:32;;;;;;;34.93;7.10;;;9.80;99.90;;;;;;5045963;28;20183;-82
2021/09/19 07:32:01;;;;;;;20.30;6.87;;;9.80;99.90;;;;;;5046763;28;20291;-81
2021/09/19 07:34:28;;;;;;;13.80;6.70;;;9.80;99.90;;;;;;5046535;28;20166;-82
2021/09/19 07:36:55;;;;;;;32.43;7.70;;;9.90;99.90;;;;;;5044134;28;20222;-81
2021/09/19 07:39:21;;;;;;;75.60;7.63;;;9.90;99.90;;;;;;5044418;28;20178;-82
2021/09/19 07:41:48;;;;;;;8.50;7.57;;;9.90;99.90;;;;;;5045551;28;20528;-81
2021/09/19 07:44:14;;;;;;;13.93;7.87;;;9.80;99.90;;;;;;5046597;28;20549;-81
2021/09/19 07:46:41;;;;;;;14.13;8.60;;;9.80;99.90;;;;;;5046329;28;20205;-81
2021/09/19 07:49:07;;;;;;;14.43;7.90;;;9.70;99.90;;;;;;5045454;28;20178;-81
2021/09/19 07:51:32;;;;;;;16.33;8.40;;;9.90;99.90;;;;;;5045680;28;20205;-82
2021/09/19 07:53:58;;;;;;;12.20;7.87;;;10.00;99.90;;;;;;5045300;28;20200;-81
2021/09/19 07:56:24;;;;;;;16.20;7.80;;;10.00;99.90;;;;;;5046012;28;20196;-81
2021/09/19 07:58:50;;;;;;;8.70;7.73;;;10.20;99.90;;;;;;5045313;28;20208;-81
2021/09/19 08:01:16;;;;;;;17.07;8.30;;;10.30;99.90;;;;;;5046509;28;20178;-81
2021/09/19 08:03:42;;;;;;;19.87;7.70;;;10.50;99.90;;;;;;5044812;28;20179;-82
2021/09/19 08:06:07;;;;;;;10.53;8.13;;;10.50;99.90;;;;;;5045900;28;20569;-82
2021/09/19 08:08:33;;;;;;;16.37;8.63;;;10.40;99.90;;;;;;5046553;28;20182;-82
2021/09/19 08:10:59;;;;;;;11.63;8.47;;;10.40;99.90;;;;;;5044781;28;20201;-82
2021/09/19 08:13:25;;;;;;;9.47;8.40;;;10.50;99.90;;;;;;5046899;28;20180;-82
2021/09/19 08:15:50;;;;;;;9.30;8.40;;;10.70;99.90;;;;;;5045926;28;20257;-82
2021/09/19 08:18:17;;;;;;;9.70;8.70;;;10.80;99.90;;;;;;5048188;28;20193;-83
2021/09/19 08:20:44;;;;;;;10.07;7.93;;;11.00;99.90;;;;;;5045231;28;20208;-83
2021/09/19 08:23:10;;;;;;;13.83;8.67;;;11.30;99.90;;;;;;5045455;28;20176;-82
2021/09/19 08:25:35;;;;;;;12.70;8.40;;;11.80;99.90;;;;;;5046206;28;20178;-82
2021/09/19 08:28:01;;;;;;;9.10;7.93;;;12.10;99.90;;;;;;5045925;28;20204;-82
2021/09/19 08:30:27;;;;;;;8.17;7.37;;;12.50;99.90;;;;;;5045180;28;20213;-82
2021/09/19 08:32:53;;;;;;;8.47;7.67;;;13.50;99.90;;;;;;5048599;28;20190;-83
2021/09/19 08:35:18;;;;;;;8.17;7.37;;;15.10;99.90;;;;;;5048738;28;20236;-83
2021/09/19 08:37:44;;;;;;;7.30;6.60;;;16.60;99.90;;;;;;5050268;28;20202;-82
2021/09/19 08:40:12;;;;;;;6.10;5.50;;;17.60;99.90;;;;;;5051302;28;20170;-83
2021/09/19 08:42:39;;;;;;;6.07;5.53;;;18.20;99.90;;;;;;5050866;28;20182;-83
2021/09/19 08:45:06;;;;;;;6.27;5.67;;;18.30;99.90;;;;;;5052672;28;20174;-82
2021/09/19 08:47:35;;;;;;;6.60;6.00;;;18.00;99.90;;;;;;5047688;28;20205;-82
2021/09/19 08:50:02;;;;;;;6.20;5.60;;;17.90;99.90;;;;;;5040386;28;20186;-82
2021/09/19 08:52:28;;;;;;;6.57;5.97;;;17.60;99.90;;;;;;5039916;28;20182;-82
2021/09/19 08:54:53;;;;;;;7.70;6.93;;;17.50;99.90;;;;;;5039983;28;20173;-82
2021/09/19 08:57:19;;;;;;;7.37;5.67;;;17.30;99.90;;;;;;5036761;28;20740;-82
2021/09/19 08:59:47;;;;;;;6.17;5.67;;;16.80;99.90;;;;;;5037066;28;20177;-82
2021/09/19 09:02:16;;;;;;;6.73;6.13;;;16.10;99.90;;;;;;5035802;28;20535;-82
2021/09/19 09:04:43;;;;;;;7.20;6.50;;;16.00;99.90;;;;;;5037500;28;20177;-82
2021/09/19 09:07:10;;;;;;;7.10;6.50;;;16.10;99.90;;;;;;5043675;28;20210;-83
2021/09/19 09:09:36;;;;;;;7.10;6.50;;;16.20;99.90;;;;;;5042035;28;20185;-82
2021/09/19 09:12:06;;;;;;;6.07;5.57;;;16.40;99.90;;;;;;5044339;28;20214;-83
2021/09/19 09:14:59;;;;;;;6.57;5.80;;;16.90;99.90;;;;;;5042613;28;20537;-83
2021/09/19 09:17:27;;;;;;;6.67;6.07;;;17.10;99.90;;;;;;5041540;28;20202;-83
2021/09/19 09:19:55;;;;;;;6.57;5.97;;;17.60;99.90;;;;;;5042358;28;20256;-83
2021/09/19 09:22:26;;;;;;;6.33;5.73;;;18.20;99.90;;;;;;5042896;28;20175;-83
2021/09/19 09:25:10;;;;;;;7.07;6.10;;;18.90;99.90;;;;;;5043204;28;20175;-83
2021/09/19 09:27:45;;;;;;;6.77;6.17;;;19.50;99.90;;;;;;5043613;28;20201;-84
2021/09/19 09:30:23;;;;;;;5.83;5.33;;;19.90;99.90;;;;;;5043468;28;20193;-83
2021/09/19 09:32:55;;;;;;;6.00;5.43;;;20.10;99.90;;;;;;5041917;28;20181;-82
2021/09/19 09:35:22;;;;;;;6.20;5.70;;;20.30;99.90;;;;;;5043749;28;20177;-83
2021/09/19 09:37:48;;;;;;;6.20;5.60;;;20.60;99.90;;;;;;5038614;28;20199;-83
2021/09/19 09:40:28;;;;;;;6.17;5.57;;;20.80;99.90;;;;;;5042199;28;20188;-83
2021/09/19 09:43:07;;;;;;;6.10;5.53;;;20.80;99.90;;;;;;5041467;28;20166;-80
2021/09/19 09:45:35;;;;;;;5.50;5.00;;;20.70;99.90;;;;;;5043020;28;20177;-83
2021/09/19 09:48:03;;;;;;;5.93;5.43;;;20.30;99.90;;;;;;5042204;28;20281;-84
2021/09/19 09:50:30;;;;;;;5.90;5.40;;;20.30;99.90;;;;;;5040774;28;20204;-81
2021/09/19 09:53:12;;;;;;;5.57;5.13;;;20.50;99.90;;;;;;5042442;28;20174;-84
2021/09/19 09:55:45;;;;;;;5.67;5.17;;;21.00;99.90;;;;;;5041494;28;20174;-81
2021/09/19 09:58:13;;;;;;;6.03;5.43;;;21.20;99.90;;;;;;5040590;28;20182;-80
2021/09/19 10:00:41;;;;;;;5.33;4.83;;;21.20;99.90;;;;;;5043285;28;20187;-83
2021/09/19 10:03:07;;;;;;;5.73;5.20;;;21.30;99.90;;;;;;5040799;28;20198;-81
2021/09/19 10:05:34;;;;;;;9.03;6.10;;;21.50;99.90;;;;;;5028288;28;20661;-83
2021/09/19 10:08:00;;;;;;;6.17;5.57;;;21.50;99.90;;;;;;5031195;28;20190;-85
2021/09/19 10:10:39;;;;;;;6.40;5.80;;;21.80;99.90;;;;;;5032315;28;20200;-84
2021/09/19 10:13:05;;;;;;;6.03;5.53;;;;;;;;;;5038234;28;20221;-83
2021/09/19 10:15:32;;;;;;;6.13;5.60;;;22.00;99.90;;;;;;5040316;28;20240;-83
2021/09/19 10:17:58;;;;;;;7.40;6.80;;;21.90;99.90;;;;;;5031951;28;20187;-83
2021/09/19 10:20:29;;;;;;;7.53;6.83;;;22.20;99.90;;;;;;5041239;28;20566;-83
2021/09/19 10:23:21;;;;;;;6.73;6.13;;;22.20;99.90;;;;;;5042267;28;20273;-82
2021/09/19 10:25:52;;;;;;;7.77;6.00;;;22.90;99.90;;;;;;5033161;28;20225;-82
2021/09/19 10:28:42;;;;;;;6.47;5.90;;;22.90;99.90;;;;;;5032826;28;20199;-81
2021/09/19 10:31:08;;;;;;;6.33;5.73;;;23.00;99.90;;;;;;5033165;28;20179;-80
2021/09/19 10:34:16;;;;;;;6.87;5.33;;;23.10;99.90;;;;;;5031275;28;20204;-78
2021/09/19 10:36:52;;;;;;;6.53;5.93;;;23.10;99.90;;;;;;5025531;28;20571;-78
2021/09/19 10:39:24;;;;;;;6.70;6.10;;;22.20;99.90;;;;;;5036977;28;20203;-78
2021/09/19 10:42:05;;;;;;;7.37;6.27;;;21.40;99.90;;;;;;5036582;28;20227;-83
2021/09/19 10:44:53;;;;;;;7.23;6.63;;;20.80;99.90;;;;;;5043238;28;20194;-83
2021/09/19 10:47:26;;;;;;;6.37;5.80;;;20.10;99.90;;;;;;5047453;28;20191;-84
2021/09/19 10:50:22;;;;;;;7.03;6.33;;;19.60;99.90;;;;;;5037061;28;20178;-84
2021/09/19 10:53:17;;;;;;;6.63;6.03;;;19.30;99.90;;;;;;5036177;28;20175;-84
2021/09/19 10:56:03;;;;;;;7.03;6.43;;;19.10;99.90;;;;;;5030523;28;20561;-84
2021/09/19 10:58:40;;;;;;;8.07;6.63;;;19.10;99.90;;;;;;5037266;28;20175;-83
2021/09/19 11:01:26;;;;;;;7.87;7.07;;;18.80;99.90;;;;;;5045394;28;20225;-83
2021/09/19 11:04:02;;;;;;;8.27;7.47;;;18.40;99.90;;;;;;5043520;28;20639;-82
2021/09/19 11:06:37;;;;;;;7.43;6.63;;;18.30;99.90;;;;;;5042952;28;20288;-82
2021/09/19 11:09:24;;;;;;;9.57;7.53;;;17.90;99.90;;;;;;5042697;28;20162;-82
2021/09/19 11:12:10;;;;;;;7.63;6.83;;;17.70;99.90;;;;;;5042094;28;20181;-82
2021/09/19 11:14:55;;;;;;;8.40;7.53;;;17.60;99.90;;;;;;5044087;28;20170;-82
2021/09/19 11:17:22;;;;;;;8.07;6.90;;;17.60;99.90;;;;;;5043347;28;20194;-81
2021/09/19 11:20:10;;;;;;;8.33;6.93;;;17.50;99.90;;;;;;5040187;28;20193;-81
2021/09/19 11:22:36;;;;;;;9.60;7.43;;;17.50;99.90;;;;;;5037856;28;20182;-82
2021/09/19 11:25:06;;;;;;;7.20;6.50;;;17.40;99.90;;;;;;5035671;28;20193;-82
2021/09/19 11:27:33;;;;;;;8.07;7.27;;;17.40;99.90;;;;;;5031355;28;20213;-81
2021/09/19 11:29:59;;;;;;;8.43;7.63;;;17.40;99.90;;;;;;5025028;28;20245;-82
2021/09/19 11:32:27;;;;;;;11.43;9.17;;;17.40;99.90;;;;;;5026785;28;20208;-83
2021/09/19 11:34:54;;;;;;;9.17;8.27;;;17.40;99.90;;;;;;5026126;28;20174;-83
2021/09/19 11:37:20;;;;;;;8.30;7.40;;;17.30;99.90;;;;;;5028178;28;20197;-80
2021/09/19 11:39:45;;;;;;;11.23;8.40;;;17.40;99.90;;;;;;5024172;28;20275;-82
2021/09/19 11:42:13;;;;;;;9.40;7.47;;;17.40;99.90;;;;;;5027233;28;20205;-83
2021/09/19 11:44:50;;;;;;;8.07;7.27;;;17.50;99.90;;;;;;5027612;28;20176;-82
2021/09/19 11:47:19;;;;;;;7.87;7.07;;;17.60;99.90;;;;;;5025357;28;20230;-82
2021/09/19 11:49:45;;;;;;;7.50;6.53;;;17.60;99.90;;;;;;5026492;28;20208;-83
2021/09/19 11:52:12;;;;;;;8.83;7.93;;;17.60;99.90;;;;;;5025047;28;20209;-82
2021/09/19 11:54:42;;;;;;;9.87;7.70;;;17.40;99.90;;;;;;5024155;28;20200;-80
2021/09/19 11:57:08;;;;;;;8.03;7.27;;;17.20;99.90;;;;;;5025445;28;20280;-82
2021/09/19 11:59:33;;;;;;;6.87;6.17;;;17.20;99.90;;;;;;5026181;28;20252;-81
2021/09/19 12:01:59;;;;;;;7.63;5.63;;;16.90;99.90;;;;;;5025793;28;20242;-83
2021/09/19 12:04:25;;;;;;;6.23;5.63;;;16.70;99.90;;;;;;5025859;28;20184;-80
2021/09/19 12:06:52;;;;;;;6.40;5.73;;;16.60;99.90;;;;;;5024903;28;20204;-80
2021/09/19 12:09:22;;;;;;;7.27;6.47;;;16.50;99.90;;;;;;5025861;28;20211;-81
2021/09/19 12:11:50;;;;;;;6.80;6.10;;;16.30;99.90;;;;;;5024718;28;20314;-84
2021/09/19 12:14:22;;;;;;;7.00;6.17;;;16.10;99.90;;;;;;5023609;28;20187;-83
2021/09/19 12:17:09;;;;;;;7.20;6.50;;;16.20;99.90;;;;;;5023047;28;20203;-82
2021/09/19 12:19:37;;;;;;;8.50;7.50;;;16.40;99.90;;;;;;5025619;28;20637;-83
2021/09/19 12:22:05;;;;;;;8.10;7.30;;;16.50;99.90;;;;;;5027656;28;20203;-84
2021/09/19 12:24:34;;;;;;;8.63;7.67;;;16.40;99.90;;;;;;5029919;28;20192;-83
2021/09/19 12:27:18;;;;;;;8.30;7.47;;;16.40;99.90;;;;;;5023440;28;20215;-83
2021/09/19 12:30:12;;;;;;;9.63;8.03;;;16.60;99.90;;;;;;5024702;28;20184;-83
2021/09/19 12:33:04;;;;;;;8.93;7.57;;;16.80;99.90;;;;;;5021913;28;20264;-82
2021/09/19 12:35:32;;;;;;;9.30;7.40;;;16.70;99.90;;;;;;5024361;28;20192;-81
2021/09/19 12:37:59;;;;;;;10.23;8.47;;;16.70;99.90;;;;;;5024789;28;20193;-81
2021/09/19 12:40:26;;;;;;;8.97;8.00;;;16.60;99.90;;;;;;5023839;28;20214;-80
2021/09/19 12:43:06;;;;;;;8.73;7.83;;;16.60;99.90;;;;;;5023881;28;20263;-80
2021/09/19 12:45:32;;;;;;;9.13;8.13;;;16.70;99.90;;;;;;5027612;28;20178;-80
2021/09/19 12:47:57;;;;;;;11.00;8.77;;;16.70;99.90;;;;;;5037327;28;20191;-82
2021/09/19 12:50:25;;;;;;;10.07;8.53;;;16.70;99.90;;;;;;5030768;28;20184;-81
2021/09/19 12:52:57;;;;;;;9.67;8.20;;;16.70;99.90;;;;;;5036625;28;20177;-82
2021/09/19 12:55:24;;;;;;;9.80;8.80;;;16.60;99.90;;;;;;5027265;28;20229;-79